Time;durP1;ratioP1;P1;durP2;ratioP2;P2;SDS_P1;SDS_P2;PMS_P1;PMS_P2;Temp;Humidity;BMP_temperature;BMP_pressure;BME280_temperature;BME280_humidity;BME280_pressure;Samples;Min_cycle;Max_cycle;Signal;HPM_P1;HPM_P2
2023/05/05 00:01:35;;;;;;;6.38;3.55;;;;;;;;;;5000432;28;20298;-51
2023/05/05 00:04:02;;;;;;;4.40;3.33;;;;;;;;;;4993198;28;20248;-52
2023/05/05 00:06:30;;;;;;;4.47;2.80;;;;;;;;;;4995306;28;20613;-52
2023/05/05 00:08:56;;;;;;;6.68;3.17;;;;;;;;;;4997233;28;20241;-51
2023/05/05 00:11:22;;;;;;;5.22;3.53;;;;;;;;;;5003797;28;20225;-51
2023/05/05 00:13:49;;;;;;;6.35;3.67;;;;;;;;;;4998915;28;20811;-51
2023/05/05 00:16:16;;;;;;;6.43;3.58;;;;;;;;;;5005640;28;20613;-52
2023/05/05 00:18:42;;;;;;;3.78;2.90;;;;;;;;;;5005601;28;20310;-51
2023/05/05 00:21:09;;;;;;;6.20;3.20;;;;;;;;;;5005329;28;20242;-51
2023/05/05 00:23:39;;;;;;;5.95;3.50;;;;;;;;;;5006171;28;20233;-52
2023/05/05 00:26:05;;;;;;;5.57;3.53;;;;;;;;;;5002157;28;20229;-50
2023/05/05 00:28:32;;;;;;;6.40;4.03;;;;;;;;;;5005033;28;20252;-50
2023/05/05 00:30:58;;;;;;;5.82;3.17;;;;;;;;;;5008462;28;20233;-52
2023/05/05 00:33:24;;;;;;;5.22;3.42;;;;;;;;;;5010618;28;20581;-52
2023/05/05 00:35:51;;;;;;;3.75;2.80;;;;;;;;;;5007604;28;20247;-51
2023/05/05 00:38:17;;;;;;;5.20;3.60;;;;;;;;;;5007249;28;20237;-51
2023/05/05 00:40:45;;;;;;;6.75;3.17;;;;;;;;;;5000410;28;20244;-51
2023/05/05 00:43:12;;;;;;;6.43;3.70;;;;;;;;;;4989435;28;20242;-51
2023/05/05 00:45:41;;;;;;;5.80;2.70;;;;;;;;;;5005639;28;20304;-51
2023/05/05 00:48:08;;;;;;;4.95;3.25;;;;;;;;;;5004471;28;20323;-50
2023/05/05 00:50:35;;;;;;;7.25;3.08;;;;;;;;;;4995896;28;20229;-51
2023/05/05 00:53:03;;;;;;;5.68;3.47;;;;;;;;;;5003820;28;20238;-50
2023/05/05 00:55:29;;;;;;;6.30;3.40;;;;;;;;;;5007865;28;20578;-52
2023/05/05 00:57:57;;;;;;;6.03;3.03;;;;;;;;;;4999176;28;20316;-52
2023/05/05 01:00:24;;;;;;;7.65;4.07;;;;;;;;;;4992225;28;20225;-51
2023/05/05 01:02:51;;;;;;;5.30;3.13;;;;;;;;;;5000101;28;20722;-53
2023/05/05 01:05:18;;;;;;;4.22;3.50;;;;;;;;;;4995123;28;20269;-52
2023/05/05 01:07:49;;;;;;;10.65;3.97;;;;;;;;;;5006166;28;20299;-56
2023/05/05 01:10:19;;;;;;;5.40;3.20;;;;;;;;;;5011573;28;20316;-52
2023/05/05 01:12:49;;;;;;;6.43;3.28;;;;;;;;;;5010874;28;20237;-52
2023/05/05 01:15:22;;;;;;;10.20;4.10;;;;;;;;;;5004332;28;20233;-50
2023/05/05 01:17:52;;;;;;;6.18;3.15;;;;;;;;;;5007837;28;20225;-49
2023/05/05 01:20:23;;;;;;;6.72;3.50;;;;;;;;;;5007821;28;20256;-50
2023/05/05 01:22:53;;;;;;;6.30;3.05;;;;;;;;;;5006275;28;20240;-50
2023/05/05 01:25:31;;;;;;;4.63;3.67;;;;;;;;;;5007520;28;20241;-51
2023/05/05 01:28:11;;;;;;;5.47;3.75;;;;;;;;;;5005282;28;20247;-53
2023/05/05 01:31:06;;;;;;;5.28;3.47;;;;;;;;;;4998843;28;20233;-51
2023/05/05 01:33:36;;;;;;;4.30;2.92;;;;;;;;;;5006303;28;20240;-51
2023/05/05 01:36:05;;;;;;;5.07;3.83;;;;;;;;;;5005011;28;20256;-51
2023/05/05 01:38:34;;;;;;;3.70;3.15;;;;;;;;;;5000120;28;20230;-51
2023/05/05 01:41:03;;;;;;;5.03;3.65;;;;;;;;;;4998794;28;20240;-51
2023/05/05 01:43:33;;;;;;;4.93;3.30;;;;;;;;;;4998328;28;20234;-50
2023/05/05 01:46:00;;;;;;;4.07;3.58;;;;;;;;;;5000176;28;20922;-51
2023/05/05 01:48:28;;;;;;;5.10;4.60;;;;;;;;;;5000699;28;20236;-51
2023/05/05 01:50:57;;;;;;;7.85;4.22;;;;;;;;;;5006164;28;20233;-52
2023/05/05 01:53:25;;;;;;;8.68;4.72;;;;;;;;;;5004293;28;20237;-52
2023/05/05 01:55:53;;;;;;;6.63;4.95;;;;;;;;;;4998614;28;20236;-52
2023/05/05 01:58:21;;;;;;;11.15;5.15;;;;;;;;;;4989333;28;20244;-52
2023/05/05 02:00:48;;;;;;;8.30;4.15;;;;;;;;;;4979379;28;20257;-50
2023/05/05 02:03:16;;;;;;;6.35;5.05;;;;;;;;;;4989573;28;20237;-50
2023/05/05 02:05:43;;;;;;;5.50;4.03;;;;;;;;;;4973351;28;20297;-50
2023/05/05 02:08:11;;;;;;;5.88;4.03;;;;;;;;;;4991708;28;20237;-51
2023/05/05 02:10:40;;;;;;;6.43;4.17;;;;;;;;;;4977450;28;20801;-51
2023/05/05 02:13:08;;;;;;;6.15;4.10;;;;;;;;;;4985733;28;20272;-51
2023/05/05 02:15:35;;;;;;;6.90;3.80;;;;;;;;;;4986279;28;20594;-52
2023/05/05 02:18:02;;;;;;;5.30;3.78;;;;;;;;;;4986807;28;20258;-51
2023/05/05 02:20:31;;;;;;;6.60;3.58;;;;;;;;;;4986515;28;20713;-51
2023/05/05 02:22:58;;;;;;;8.80;4.65;;;;;;;;;;4984124;28;20237;-51
2023/05/05 02:25:28;;;;;;;6.35;3.63;;;;;;;;;;4986741;28;20233;-51
2023/05/05 02:27:57;;;;;;;8.45;3.20;;;;;;;;;;4987069;28;20313;-51
2023/05/05 02:30:24;;;;;;;4.78;3.55;;;;;;;;;;4985707;28;20729;-52
2023/05/05 02:32:54;;;;;;;5.50;3.25;;;;;;;;;;4991356;28;20244;-52
2023/05/05 02:35:21;;;;;;;3.78;3.30;;;;;;;;;;4997928;28;20232;-51
2023/05/05 02:37:58;;;;;;;5.72;3.67;;;;;;;;;;5002081;28;20233;-50
2023/05/05 02:40:27;;;;;;;4.78;3.88;;;;;;;;;;4996476;28;20881;-50
2023/05/05 02:42:55;;;;;;;3.72;2.88;;;;;;;;;;4993064;28;20327;-51
2023/05/05 02:45:22;;;;;;;3.70;3.22;;;;;;;;;;4996329;28;20324;-51
2023/05/05 02:47:49;;;;;;;7.00;3.73;;;;;;;;;;4996155;28;20243;-50
2023/05/05 02:50:16;;;;;;;4.57;3.03;;;;;;;;;;5002628;28;20271;-51
2023/05/05 02:52:43;;;;;;;5.53;3.35;;;;;;;;;;5000234;28;21738;-52
2023/05/05 02:55:10;;;;;;;4.50;3.35;;;;;;;;;;4996847;28;20240;-52
2023/05/05 02:57:41;;;;;;;5.28;3.58;;;;;;;;;;4997716;28;20312;-50
2023/05/05 03:00:10;;;;;;;4.90;3.42;;;;;;;;;;5001172;28;20233;-51
2023/05/05 03:02:43;;;;;;;6.32;3.72;;;;;;;;;;4998839;28;20243;-52
2023/05/05 03:05:11;;;;;;;5.18;3.28;;;;;;;;;;5005076;28;20233;-51
2023/05/05 03:07:39;;;;;;;4.53;3.58;;;;;;;;;;5003438;28;20225;-51
2023/05/05 03:10:08;;;;;;;5.47;3.22;;;;;;;;;;5003478;28;20237;-50
2023/05/05 03:12:37;;;;;;;6.72;3.60;;;;;;;;;;5006009;28;20241;-51
2023/05/05 03:15:06;;;;;;;5.65;3.28;;;;;;;;;;5005938;28;20233;-51
2023/05/05 03:17:34;;;;;;;6.10;3.60;;;;;;;;;;4999608;28;20230;-51
2023/05/05 03:20:01;;;;;;;5.88;3.55;;;;;;;;;;4986405;28;20288;-52
2023/05/05 03:22:28;;;;;;;6.03;3.30;;;;;;;;;;4986244;28;20617;-50
2023/05/05 03:24:54;;;;;;;9.88;3.83;;;;;;;;;;4986018;28;20615;-52
2023/05/05 03:27:21;;;;;;;8.15;3.28;;;;;;;;;;4999244;28;20237;-50
2023/05/05 03:29:47;;;;;;;7.40;3.42;;;;;;;;;;4999628;28;20240;-50
2023/05/05 03:32:16;;;;;;;4.10;2.87;;;;;;;;;;4991234;28;20343;-52
2023/05/05 03:34:42;;;;;;;4.93;3.23;;;;;;;;;;5002816;28;20233;-52
2023/05/05 03:37:09;;;;;;;3.83;3.42;;;;;;;;;;5003260;28;20291;-51
2023/05/05 03:39:35;;;;;;;4.68;3.47;;;;;;;;;;4987497;28;20326;-51
2023/05/05 03:42:02;;;;;;;5.32;3.20;;;;;;;;;;5004028;28;20331;-51
2023/05/05 03:44:28;;;;;;;5.55;3.90;;;;;;;;;;5004458;28;20237;-51
2023/05/05 03:46:55;;;;;;;7.93;3.30;;;;;;;;;;5004193;28;20229;-52
2023/05/05 03:49:23;;;;;;;4.45;3.35;;;;;;;;;;5001970;28;20654;-50
2023/05/05 03:51:49;;;;;;;5.23;3.50;;;;;;;;;;4994951;28;20233;-50
2023/05/05 03:54:16;;;;;;;4.00;3.53;;;;;;;;;;4986773;28;20241;-50
2023/05/05 03:56:43;;;;;;;4.83;3.30;;;;;;;;;;4993880;28;20232;-50
2023/05/05 03:59:09;;;;;;;7.60;3.60;;;;;;;;;;5003892;28;20229;-51
2023/05/05 04:01:36;;;;;;;4.43;3.30;;;;;;;;;;5003617;28;20232;-51
2023/05/05 04:04:02;;;;;;;5.50;3.85;;;;;;;;;;5003046;28;20229;-51
2023/05/05 04:06:31;;;;;;;3.77;3.23;;;;;;;;;;5003628;28;20607;-50
2023/05/05 04:08:57;;;;;;;5.53;3.08;;;;;;;;;;5003707;28;20237;-52
2023/05/05 04:11:25;;;;;;;4.70;3.30;;;;;;;;;;5003994;28;20283;-51
2023/05/05 04:13:51;;;;;;;5.20;3.70;;;;;;;;;;5003652;28;20682;-51
2023/05/05 04:16:18;;;;;;;5.13;3.40;;;;;;;;;;5004671;28;20312;-50
2023/05/05 04:18:45;;;;;;;6.10;4.67;;;;;;;;;;5004040;28;20237;-51
2023/05/05 04:21:11;;;;;;;4.80;3.77;;;;;;;;;;5004005;28;20243;-50
2023/05/05 04:23:39;;;;;;;7.10;4.10;;;;;;;;;;5003158;28;20615;-50
2023/05/05 04:26:06;;;;;;;5.40;3.67;;;;;;;;;;4999426;28;20779;-50
2023/05/05 04:28:33;;;;;;;6.03;3.50;;;;;;;;;;4996680;28;20579;-51
2023/05/05 04:31:00;;;;;;;5.63;3.53;;;;;;;;;;4995002;28;20365;-51
2023/05/05 04:33:26;;;;;;;6.40;3.50;;;;;;;;;;4994699;28;20715;-51
2023/05/05 04:35:53;;;;;;;5.15;3.28;;;;;;;;;;4991521;28;20232;-50
2023/05/05 04:38:20;;;;;;;4.83;3.40;;;;;;;;;;5004266;28;20233;-51
2023/05/05 04:40:47;;;;;;;6.43;3.80;;;;;;;;;;5001706;28;20334;-51
2023/05/05 04:43:14;;;;;;;10.10;4.17;;;;;;;;;;5003918;28;21997;-51
2023/05/05 04:45:40;;;;;;;7.27;4.03;;;;;;;;;;5000596;28;20241;-51
2023/05/05 04:48:07;;;;;;;8.60;4.67;;;;;;;;;;4997887;28;20666;-51
2023/05/05 04:50:34;;;;;;;4.23;3.63;;;;;;;;;;4996172;28;20236;-50
2023/05/05 04:53:00;;;;;;;5.80;4.10;;;;;;;;;;4996827;28;20261;-52
2023/05/05 04:55:27;;;;;;;4.87;3.67;;;;;;;;;;5003624;28;20271;-50
2023/05/05 04:57:55;;;;;;;7.60;4.50;;;;;;;;;;5004137;28;20882;-51
2023/05/05 05:00:22;;;;;;;8.43;4.17;;;;;;;;;;4998627;28;20708;-52
2023/05/05 05:02:48;;;;;;;10.90;4.15;;;;;;;;;;5003118;28;20253;-51
2023/05/05 05:05:15;;;;;;;15.13;4.97;;;;;;;;;;5004020;28;20312;-52
2023/05/05 05:07:42;;;;;;;5.00;3.67;;;;;;;;;;5004636;28;20287;-52
2023/05/05 05:10:09;;;;;;;10.32;4.63;;;;;;;;;;5003698;28;20230;-53
2023/05/05 05:12:35;;;;;;;5.33;4.07;;;;;;;;;;5002084;28;20236;-50
2023/05/05 05:15:03;;;;;;;10.03;4.33;;;;;;;;;;4998889;28;20241;-52
2023/05/05 05:17:30;;;;;;;5.90;4.50;;;;;;;;;;5003842;28;20225;-51
2023/05/05 05:20:00;;;;;;;11.40;5.07;;;;;;;;;;5000602;28;20315;-50
2023/05/05 05:22:26;;;;;;;8.33;4.87;;;;;;;;;;5004691;28;20222;-50
2023/05/05 05:24:53;;;;;;;7.40;4.27;;;;;;;;;;5002768;28;20947;-52
2023/05/05 05:27:19;;;;;;;6.93;3.92;;;;;;;;;;5001833;28;20237;-51
2023/05/05 05:29:46;;;;;;;6.23;4.07;;;;;;;;;;5004565;28;20245;-52
2023/05/05 05:32:14;;;;;;;7.53;4.37;;;;;;;;;;5006090;28;20312;-51
2023/05/05 05:34:40;;;;;;;7.60;4.10;;;;;;;;;;5006776;28;20241;-50
2023/05/05 05:37:07;;;;;;;5.38;4.15;;;;;;;;;;5005425;28;20236;-51
2023/05/05 05:39:33;;;;;;;7.82;4.75;;;;;;;;;;5000736;28;20324;-52
2023/05/05 05:42:01;;;;;;;14.80;4.93;;;;;;;;;;4992703;28;20248;-50
2023/05/05 05:44:28;;;;;;;5.28;4.05;;;;;;;;;;4981662;28;20272;-51
2023/05/05 05:46:55;;;;;;;7.22;4.63;;;;;;;;;;4984163;28;20327;-52
2023/05/05 05:49:22;;;;;;;7.43;4.88;;;;;;;;;;4982406;28;20295;-51
2023/05/05 05:51:49;;;;;;;8.30;4.30;;;;;;;;;;4984164;28;20238;-51
2023/05/05 05:54:16;;;;;;;10.77;5.07;;;;;;;;;;4983739;28;20244;-50
2023/05/05 05:56:42;;;;;;;7.00;4.45;;;;;;;;;;4983804;28;20272;-50
2023/05/05 05:59:09;;;;;;;11.40;4.65;;;;;;;;;;4984378;28;20332;-51
2023/05/05 06:01:36;;;;;;;6.40;4.65;;;;;;;;;;4982478;28;20229;-51
2023/05/05 06:04:02;;;;;;;10.35;4.93;;;;;;;;;;4982040;28;20383;-51
2023/05/05 06:06:30;;;;;;;6.82;4.68;;;;;;;;;;4983230;28;20237;-52
2023/05/05 06:08:57;;;;;;;11.60;5.00;;;;;;;;;;4983547;28;20238;-51
2023/05/05 06:11:23;;;;;;;5.43;4.10;;;;;;;;;;4980615;28;20256;-50
2023/05/05 06:13:50;;;;;;;8.38;4.53;;;;;;;;;;4982240;28;20608;-51
2023/05/05 06:16:17;;;;;;;7.70;4.88;;;;;;;;;;4978168;28;20731;-52
2023/05/05 06:18:43;;;;;;;7.00;5.10;;;;;;;;;;4987181;28;20235;-50
2023/05/05 06:21:11;;;;;;;6.15;4.13;;;;;;;;;;4995392;28;20239;-51
2023/05/05 06:23:39;;;;;;;7.22;4.55;;;;;;;;;;5001986;28;20853;-51
2023/05/05 06:26:05;;;;;;;6.22;4.00;;;;;;;;;;4998143;28;20251;-51
2023/05/05 06:28:32;;;;;;;6.72;4.45;;;;;;;;;;5002973;28;20854;-50
2023/05/05 06:30:58;;;;;;;13.65;5.57;;;;;;;;;;5003294;28;20242;-51
2023/05/05 06:33:25;;;;;;;7.88;4.63;;;;;;;;;;4999177;28;20233;-51
2023/05/05 06:35:53;;;;;;;5.28;3.83;;;;;;;;;;5001927;28;20235;-52
2023/05/05 06:38:19;;;;;;;30.70;5.32;;;;;;;;;;5003042;28;20780;-53
2023/05/05 06:40:49;;;;;;;8.20;5.57;;;;;;;;;;4996861;28;20288;-53
2023/05/05 06:43:16;;;;;;;5.30;4.32;;;;;;;;;;5003476;28;20244;-52
2023/05/05 06:45:42;;;;;;;8.55;4.22;;;;;;;;;;4999700;28;20330;-51
2023/05/05 06:48:09;;;;;;;5.85;4.50;;;;;;;;;;4999051;28;20234;-52
2023/05/05 06:50:36;;;;;;;6.63;4.45;;;;;;;;;;4994280;28;20347;-53
2023/05/05 06:53:02;;;;;;;9.32;5.32;;;;;;;;;;5004555;28;20230;-51
2023/05/05 06:55:29;;;;;;;8.85;4.30;;;;;;;;;;5003606;28;20283;-52
2023/05/05 06:57:57;;;;;;;10.18;4.47;;;;;;;;;;5004642;28;20353;-52
2023/05/05 07:00:23;;;;;;;7.35;4.25;;;;;;;;;;4996137;28;20320;-53
2023/05/05 07:02:50;;;;;;;8.38;4.13;;;;;;;;;;5001970;28;20241;-52
2023/05/05 07:05:17;;;;;;;4.35;3.95;;;;;;;;;;5000490;28;20313;-52
2023/05/05 07:07:50;;;;;;;7.20;4.63;;;;;;;;;;4998300;28;20344;-51
2023/05/05 07:10:17;;;;;;;8.40;4.55;;;;;;;;;;5004460;28;20299;-52
2023/05/05 07:12:43;;;;;;;8.02;4.35;;;;;;;;;;4998688;28;20241;-51
2023/05/05 07:15:12;;;;;;;11.50;4.45;;;;;;;;;;5000333;28;20647;-51
2023/05/05 07:17:38;;;;;;;7.70;5.32;;;;;;;;;;5004904;28;20233;-51
2023/05/05 07:20:05;;;;;;;7.50;4.22;;;;;;;;;;4994929;28;20229;-51
2023/05/05 07:22:32;;;;;;;10.35;4.45;;;;;;;;;;5003853;28;20592;-53
2023/05/05 07:24:58;;;;;;;4.78;4.07;;;;;;;;;;5001995;28;20321;-51
2023/05/05 07:27:25;;;;;;;7.80;4.80;;;;;;;;;;5003110;28;20241;-51
2023/05/05 07:29:52;;;;;;;7.80;4.47;;;;;;;;;;4996735;28;20840;-50
2023/05/05 07:32:20;;;;;;;5.90;4.40;;;;;;;;;;5000859;28;20896;-51
2023/05/05 07:34:47;;;;;;;9.88;3.85;;;;;;;;;;4993912;28;20241;-51
2023/05/05 07:37:14;;;;;;;7.97;4.43;;;;;;;;;;5002103;28;20333;-51
2023/05/05 07:39:41;;;;;;;9.32;4.00;;;;;;;;;;5007578;28;20233;-51
2023/05/05 07:42:08;;;;;;;6.90;3.92;;;;;;;;;;5005379;28;20237;-52
2023/05/05 07:44:34;;;;;;;9.23;4.50;;;;;;;;;;5008457;28;20264;-52
2023/05/05 07:47:01;;;;;;;11.73;4.70;;;;;;;;;;5004265;28;20702;-51
2023/05/05 07:49:29;;;;;;;5.15;3.78;;;;;;;;;;5008617;28;20233;-51
2023/05/05 07:51:56;;;;;;;9.05;4.25;;;;;;;;;;5005741;28;20237;-50
2023/05/05 07:54:23;;;;;;;7.93;4.75;;;;;;;;;;5008002;28;20699;-50
2023/05/05 07:56:49;;;;;;;6.25;4.78;;;;;;;;;;5002355;28;20237;-52
2023/05/05 07:59:16;;;;;;;5.28;4.18;;;;;;;;;;5000781;28;20244;-51
2023/05/05 08:01:42;;;;;;;5.07;4.03;;;;;;;;;;5004343;28;20233;-56
2023/05/05 08:04:09;;;;;;;11.40;4.95;;;;;;;;;;5005381;28;20260;-50
2023/05/05 08:06:37;;;;;;;15.23;4.25;;;;;;;;;;4992724;28;20240;-51
2023/05/05 08:09:04;;;;;;;5.65;3.65;;;;;;;;;;4999483;28;20283;-52
2023/05/05 08:11:30;;;;;;;10.43;5.38;;;;;;;;;;5000931;28;20241;-50
2023/05/05 08:13:58;;;;;;;6.43;4.28;;;;;;;;;;5004817;28;20315;-50
2023/05/05 08:16:25;;;;;;;5.70;4.63;;;;;;;;;;4998362;28;20226;-51
2023/05/05 08:18:51;;;;;;;8.20;4.57;;;;;;;;;;4995947;28;20303;-50
2023/05/05 08:21:18;;;;;;;6.53;4.20;;;;;;;;;;5004298;28;20332;-51
2023/05/05 08:23:46;;;;;;;5.80;3.72;;;;;;;;;;4990175;28;20241;-51
2023/05/05 08:26:13;;;;;;;10.15;4.97;;;;;;;;;;4997738;28;20312;-50
2023/05/05 08:28:40;;;;;;;7.80;4.50;;;;;;;;;;4998877;28;20324;-50
2023/05/05 08:31:08;;;;;;;6.97;4.20;;;;;;;;;;5002181;28;20229;-51
2023/05/05 08:33:35;;;;;;;5.35;4.40;;;;;;;;;;4997838;28;20230;-51
2023/05/05 08:36:01;;;;;;;7.45;4.05;;;;;;;;;;5000119;28;20237;-51
2023/05/05 08:38:28;;;;;;;10.30;4.43;;;;;;;;;;4993371;28;20233;-50
2023/05/05 08:40:56;;;;;;;12.02;4.88;;;;;;;;;;4999550;28;20775;-51
2023/05/05 08:43:23;;;;;;;9.90;4.65;;;;;;;;;;4991978;28;20236;-51
2023/05/05 08:45:50;;;;;;;7.28;4.32;;;;;;;;;;4992919;28;20280;-51
2023/05/05 08:48:17;;;;;;;9.60;4.55;;;;;;;;;;5001738;28;20311;-55
2023/05/05 08:50:47;;;;;;;9.60;4.35;;;;;;;;;;5003137;28;20328;-52
2023/05/05 08:53:16;;;;;;;6.68;4.00;;;;;;;;;;5007363;28;20237;-50
2023/05/05 08:55:50;;;;;;;6.80;4.43;;;;;;;;;;5004503;28;20233;-52
2023/05/05 08:58:18;;;;;;;6.72;5.00;;;;;;;;;;5007359;28;20320;-51
2023/05/05 09:00:45;;;;;;;7.03;4.65;;;;;;;;;;5006997;28;20340;-50
2023/05/05 09:03:12;;;;;;;9.38;4.35;;;;;;;;;;5006239;28;20241;-51
2023/05/05 09:05:38;;;;;;;7.05;4.75;;;;;;;;;;5005886;28;20245;-51
2023/05/05 09:08:05;;;;;;;11.20;4.95;;;;;;;;;;5013267;28;20316;-52
2023/05/05 09:10:32;;;;;;;5.03;4.53;;;;;;;;;;5009429;28;20289;-50
2023/05/05 09:12:58;;;;;;;5.82;3.58;;;;;;;;;;5010169;28;20312;-50
2023/05/05 09:15:27;;;;;;;8.02;4.85;;;;;;;;;;5013352;28;20243;-52
2023/05/05 09:17:56;;;;;;;8.70;4.70;;;;;;;;;;5006815;28;20237;-52
2023/05/05 09:20:23;;;;;;;6.28;4.38;;;;;;;;;;4999585;28;20340;-51
2023/05/05 09:22:49;;;;;;;8.38;4.25;;;;;;;;;;4998646;28;20245;-51
2023/05/05 09:25:17;;;;;;;6.93;3.97;;;;;;;;;;4998645;28;20237;-51
2023/05/05 09:27:45;;;;;;;6.57;4.30;;;;;;;;;;4999797;28;20330;-52
2023/05/05 09:30:12;;;;;;;6.68;4.57;;;;;;;;;;4999591;28;20261;-51
2023/05/05 09:32:47;;;;;;;12.88;5.13;;;;;;;;;;5000956;28;20254;-50
2023/05/05 09:35:14;;;;;;;7.13;4.38;;;;;;;;;;5001287;28;20235;-51
2023/05/05 09:37:41;;;;;;;7.90;4.30;;;;;;;;;;5000893;28;20233;-51
2023/05/05 09:40:08;;;;;;;5.93;4.22;;;;;;;;;;5005657;28;20317;-51
2023/05/05 09:42:35;;;;;;;8.52;4.80;;;;;;;;;;5006864;28;20248;-52
2023/05/05 09:45:01;;;;;;;6.90;4.03;;;;;;;;;;5005846;28;20839;-52
2023/05/05 09:47:33;;;;;;;11.25;4.22;;;;;;;;;;4998752;28;20308;-51
2023/05/05 09:50:01;;;;;;;9.73;5.20;;;;;;;;;;5002111;28;20871;-53
2023/05/05 09:52:27;;;;;;;4.78;4.15;;;;;;;;;;5004320;28;20649;-52
2023/05/05 09:54:55;;;;;;;9.23;4.82;;;;;;;;;;5003377;28;20232;-51
2023/05/05 09:57:28;;;;;;;6.72;3.80;;;;;;;;;;4999222;28;20233;-50
2023/05/05 09:59:55;;;;;;;5.72;4.07;;;;;;;;;;5003979;28;20823;-52
2023/05/05 10:02:29;;;;;;;6.93;4.15;;;;;;;;;;5001843;28;20330;-52
2023/05/05 10:05:05;;;;;;;5.60;4.47;;;;;;;;;;4995938;28;20233;-51
2023/05/05 10:07:31;;;;;;;10.13;4.13;;;;;;;;;;5001497;28;20221;-50
2023/05/05 10:09:58;;;;;;;4.55;3.28;;;;;;;;;;5005435;28;20308;-56
2023/05/05 10:12:25;;;;;;;6.90;4.35;;;;;;;;;;5006200;28;20237;-53
2023/05/05 10:14:52;;;;;;;8.15;3.85;;;;;;;;;;5003150;28;20233;-53
2023/05/05 10:17:20;;;;;;;5.53;4.25;;;;;;;;;;5000965;28;20784;-53
2023/05/05 10:19:46;;;;;;;8.32;4.30;;;;;;;;;;4994784;28;20252;-54
2023/05/05 10:22:14;;;;;;;8.35;4.43;;;;;;;;;;5002631;28;20237;-50
2023/05/05 10:24:42;;;;;;;8.77;4.60;;;;;;;;;;5002351;28;20974;-52
2023/05/05 10:27:12;;;;;;;6.65;4.60;;;;;;;;;;4998350;28;20234;-50
2023/05/05 10:29:39;;;;;;;6.10;4.18;;;;;;;;;;4997921;28;20229;-52
2023/05/05 10:32:11;;;;;;;5.25;3.58;;;;;;;;;;4997994;28;20229;-55
2023/05/05 10:34:39;;;;;;;6.05;3.90;;;;;;;;;;5004656;28;20225;-51
2023/05/05 10:37:06;;;;;;;7.82;4.30;;;;;;;;;;5006266;28;20240;-50
2023/05/05 10:39:35;;;;;;;7.18;4.90;;;;;;;;;;5008968;28;20247;-53
2023/05/05 10:42:02;;;;;;;8.90;4.70;;;;;;;;;;5004715;28;20316;-54
2023/05/05 10:44:30;;;;;;;4.60;4.07;;;;;;;;;;5004934;28;20233;-53
2023/05/05 10:46:57;;;;;;;5.22;4.72;;;;;;;;;;5007776;28;20752;-51
2023/05/05 10:49:27;;;;;;;5.80;4.10;;;;;;;;;;5013874;28;20229;-50
2023/05/05 10:51:56;;;;;;;8.32;4.43;;;;;;;;;;5022637;28;20316;-51
2023/05/05 10:54:24;;;;;;;8.05;4.57;;;;;;;;;;5024422;28;20305;-52
2023/05/05 10:56:52;;;;;;;6.53;4.10;;;;;;;;;;5009912;28;20260;-56
2023/05/05 10:59:39;;;;;;;8.25;4.22;;;;;;;;;;5012570;28;20427;-52
2023/05/05 11:02:17;;;;;;;5.53;4.18;;;;;;;;;;5015174;28;20252;-51
2023/05/05 11:04:44;;;;;;;4.70;3.65;;;;;;;;;;5014864;28;20817;-51
2023/05/05 11:07:26;;;;;;;6.18;4.03;;;;;;;;;;5009380;28;20321;-52
2023/05/05 11:09:56;;;;;;;6.30;3.90;;;;;;;;;;4997164;28;20236;-52
2023/05/05 11:12:24;;;;;;;3.72;3.40;;;;;;;;;;5000377;28;20332;-52
2023/05/05 11:15:09;;;;;;;6.15;4.07;;;;;;;;;;5001701;28;20229;-51
2023/05/05 11:17:44;;;;;;;10.43;3.90;;;;;;;;;;5003456;28;20980;-52
2023/05/05 11:20:10;;;;;;;3.53;2.92;;;;;;;;;;4999536;28;20319;-51
2023/05/05 11:23:08;;;;;;;5.72;3.63;;;;;;;;;;5002306;28;20236;-50
2023/05/05 11:25:50;;;;;;;6.60;3.50;;;;;;;;;;4999750;28;20256;-53
2023/05/05 11:28:17;;;;;;;7.88;4.30;;;;;;;;;;5001003;28;20387;-51
2023/05/05 11:36:38;;;;;;;6.43;3.67;;;;;;;;;;5023494;28;20243;-53
2023/05/05 11:39:08;;;;;;;6.40;3.88;;;;;;;;;;5032499;28;20703;-51
2023/05/05 11:41:44;;;;;;;6.00;3.85;;;;;;;;;;5042811;28;20855;-54
2023/05/05 11:44:12;;;;;;;4.60;2.95;;;;;;;;;;5039517;28;20252;-56
2023/05/05 11:46:39;;;;;;;6.35;3.55;;;;;;;;;;5038564;28;20259;-53
2023/05/05 11:49:06;;;;;;;7.32;3.60;;;;;;;;;;5039515;28;20246;-50
2023/05/05 11:51:33;;;;;;;7.40;4.10;;;;;;;;;;5035544;28;20240;-53
2023/05/05 11:53:59;;;;;;;8.13;4.13;;;;;;;;;;5019265;28;20239;-52
2023/05/05 11:56:26;;;;;;;6.57;3.35;;;;;;;;;;5040022;28;20255;-52
2023/05/05 11:59:06;;;;;;;4.22;3.63;;;;;;;;;;5029509;28;20266;-51
2023/05/05 12:01:33;;;;;;;6.90;3.83;;;;;;;;;;5028735;28;20330;-52
2023/05/05 12:03:59;;;;;;;6.65;4.60;;;;;;;;;;5040876;28;20242;-53
2023/05/05 12:06:26;;;;;;;4.25;3.83;;;;;;;;;;5043536;28;20236;-52
2023/05/05 12:08:53;;;;;;;4.30;3.55;;;;;;;;;;5038368;28;20240;-53
2023/05/05 12:11:20;;;;;;;4.32;3.92;;;;;;;;;;5041372;28;20235;-51
2023/05/05 12:13:46;;;;;;;3.45;3.03;;;;;;;;;;5039817;28;20235;-53
2023/05/05 12:16:15;;;;;;;7.07;3.35;;;;;;;;;;5042366;28;20853;-51
2023/05/05 12:18:42;;;;;;;6.68;3.60;;;;;;;;;;5042398;28;20350;-52
2023/05/05 12:21:14;;;;;;;4.32;3.28;;;;;;;;;;5043188;28;20235;-52
2023/05/05 12:23:40;;;;;;;4.50;2.95;;;;;;;;;;5041592;28;20235;-54
2023/05/05 12:26:07;;;;;;;6.93;3.20;;;;;;;;;;5048455;28;20314;-53
2023/05/05 12:28:43;;;;;;;6.07;3.47;;;;;;;;;;5044834;28;20579;-51
2023/05/05 12:31:10;;;;;;;7.05;3.63;;;;;;;;;;5046824;28;20231;-52
2023/05/05 12:33:40;;;;;;;3.50;3.17;;;;;;;;;;5037890;28;21063;-52
2023/05/05 12:36:07;;;;;;;6.97;3.92;;;;;;;;;;5049421;28;20240;-52
2023/05/05 12:38:34;;;;;;;3.00;2.80;;;;;;;;;;5047406;28;20240;-53
2023/05/05 12:41:02;;;;;;;4.25;3.38;;;;;;;;;;5045899;28;20235;-53
2023/05/05 12:43:30;;;;;;;6.28;3.25;;;;;;;;;;5044081;28;20758;-52
2023/05/05 12:46:00;;;;;;;5.07;2.83;;;;;;;;;;5041711;28;20259;-55
2023/05/05 12:48:26;;;;;;;7.15;3.17;;;;;;;;;;5030589;28;20231;-51
2023/05/05 12:50:54;;;;;;;4.30;3.22;;;;;;;;;;5044853;28;20232;-53
2023/05/05 12:53:21;;;;;;;6.20;3.20;;;;;;;;;;5041170;28;20266;-50
2023/05/05 12:55:48;;;;;;;4.78;3.33;;;;;;;;;;5032031;28;20315;-51
2023/05/05 12:58:14;;;;;;;10.18;3.05;;;;;;;;;;5030846;28;20251;-51
2023/05/05 13:00:40;;;;;;;5.75;3.22;;;;;;;;;;5045888;28;20269;-52
2023/05/05 13:03:17;;;;;;;8.48;3.05;;;;;;;;;;5043104;28;20235;-52
2023/05/05 13:05:43;;;;;;;5.20;2.75;;;;;;;;;;5043990;28;20437;-53
2023/05/05 13:08:11;;;;;;;6.03;2.72;;;;;;;;;;5049084;28;20224;-52
2023/05/05 13:10:40;;;;;;;3.13;2.78;;;;;;;;;;5045014;28;20319;-52
2023/05/05 13:13:07;;;;;;;5.47;3.20;;;;;;;;;;5040978;28;20246;-50
2023/05/05 13:15:34;;;;;;;4.88;2.80;;;;;;;;;;5044824;28;20230;-53
2023/05/05 13:18:01;;;;;;;4.63;3.25;;;;;;;;;;5046600;28;20346;-51
2023/05/05 13:20:28;;;;;;;4.10;2.20;;;;;;;;;;5046796;28;20317;-50
2023/05/05 13:22:54;;;;;;;8.40;2.95;;;;;;;;;;5045987;28;20259;-52
2023/05/05 13:25:22;;;;;;;3.67;2.97;;;;;;;;;;5049261;28;20286;-52
2023/05/05 13:27:48;;;;;;;9.70;3.40;;;;;;;;;;5040828;28;20236;-52
2023/05/05 13:30:15;;;;;;;5.38;2.75;;;;;;;;;;5042605;28;20314;-51
2023/05/05 13:32:41;;;;;;;12.02;3.22;;;;;;;;;;5044697;28;20239;-52
2023/05/05 13:35:08;;;;;;;4.32;2.70;;;;;;;;;;5038205;28;20285;-52
2023/05/05 13:37:34;;;;;;;4.30;2.53;;;;;;;;;;5042023;28;20228;-52
2023/05/05 13:40:01;;;;;;;5.70;2.88;;;;;;;;;;5047005;28;20235;-52
2023/05/05 13:42:28;;;;;;;5.68;3.10;;;;;;;;;;5051432;28;20246;-52
2023/05/05 13:44:55;;;;;;;3.67;2.47;;;;;;;;;;5047969;28;20235;-53
2023/05/05 13:47:21;;;;;;;3.58;2.80;;;;;;;;;;5044548;28;20743;-52
2023/05/05 13:49:47;;;;;;;3.55;2.75;;;;;;;;;;5041667;28;20247;-52
2023/05/05 13:52:14;;;;;;;4.63;2.60;;;;;;;;;;5029540;28;20282;-52
2023/05/05 13:54:40;;;;;;;3.40;2.90;;;;;;;;;;5031288;28;20239;-51
2023/05/05 13:57:07;;;;;;;5.53;3.08;;;;;;;;;;5044377;28;20236;-51
2023/05/05 13:59:35;;;;;;;5.18;3.20;;;;;;;;;;5044433;28;20350;-52
2023/05/05 14:02:01;;;;;;;3.85;3.15;;;;;;;;;;5040597;28;20236;-51
2023/05/05 14:04:28;;;;;;;2.60;2.33;;;;;;;;;;5044225;28;20223;-52
2023/05/05 14:06:57;;;;;;;6.18;2.72;;;;;;;;;;5041539;28;20243;-52
2023/05/05 14:09:23;;;;;;;4.82;3.03;;;;;;;;;;5043009;28;20734;-51
2023/05/05 14:11:49;;;;;;;5.53;2.70;;;;;;;;;;5039818;28;20239;-50
2023/05/05 14:14:16;;;;;;;5.47;2.72;;;;;;;;;;5037354;28;20342;-52
2023/05/05 14:16:45;;;;;;;6.28;3.30;;;;;;;;;;5041343;28;20354;-52
2023/05/05 14:19:11;;;;;;;6.20;3.40;;;;;;;;;;5044686;28;20235;-52
2023/05/05 14:21:37;;;;;;;8.45;4.43;;;;;;;;;;5039978;28;20432;-51
2023/05/05 14:24:04;;;;;;;5.65;2.92;;;;;;;;;;5042872;28;20836;-52
2023/05/05 14:26:30;;;;;;;4.53;2.90;;;;;;;;;;5048338;28;20758;-50
2023/05/05 14:28:57;;;;;;;3.47;2.60;;;;;;;;;;5039412;28;20260;-52
2023/05/05 14:31:23;;;;;;;4.13;3.35;;;;;;;;;;5044401;28;20311;-51
2023/05/05 14:33:52;;;;;;;4.10;2.95;;;;;;;;;;5044791;28;20767;-53
2023/05/05 14:36:18;;;;;;;3.45;2.50;;;;;;;;;;5039892;28;20232;-51
2023/05/05 14:38:44;;;;;;;5.15;3.17;;;;;;;;;;5043279;28;20331;-51
2023/05/05 14:41:11;;;;;;;6.57;3.88;;;;;;;;;;5038739;28;20286;-52
2023/05/05 14:43:37;;;;;;;4.18;3.17;;;;;;;;;;5043693;28;20228;-51
2023/05/05 14:46:05;;;;;;;2.80;2.60;;;;;;;;;;5045312;28;20679;-52
2023/05/05 14:48:32;;;;;;;3.50;2.80;;;;;;;;;;5040490;28;20224;-51
2023/05/05 14:51:00;;;;;;;4.00;3.15;;;;;;;;;;5039215;28;20240;-52